Time;durP1;ratioP1;P1;durP2;ratioP2;P2;SDS_P1;SDS_P2;PMS_P1;PMS_P2;Temp;Humidity;BMP_temperature;BMP_pressure;BME280_temperature;BME280_humidity;BME280_pressure;Samples;Min_cycle;Max_cycle;Signal;HPM_P1;HPM_P2
2023/03/13 00:00:18;;;;;;;;;;;;;;;8.19;58.29;100986.03;5073938;28;19913;-85
2023/03/13 00:03:11;;;;;;;;;;;;;;;8.16;58.48;100986.63;5072683;28;20300;-86
2023/03/13 00:06:03;;;;;;;;;;;;;;;8.41;57.85;100993.63;5078914;28;19912;-86
2023/03/13 00:08:55;;;;;;;;;;;;;;;8.42;58.05;100995.25;5065568;28;19912;-86
2023/03/13 00:11:43;;;;;;;;;;;;;;;8.24;58.00;100999.53;5077020;28;20379;-85
2023/03/13 00:14:30;;;;;;;;;;;;;;;8.14;58.54;100997.75;5077045;28;19913;-85
2023/03/13 00:17:19;;;;;;;;;;;;;;;8.49;58.05;100993.75;5079740;28;20384;-86
2023/03/13 00:20:04;;;;;;;;;;;;;;;8.56;58.60;101004.25;5075324;28;19912;-85
2023/03/13 00:22:56;;;;;;;;;;;;;;;8.50;57.51;100995.38;5069697;28;19913;-86
2023/03/13 00:25:44;;;;;;;;;;;;;;;8.71;57.18;100989.63;5071766;28;19913;-86
2023/03/13 00:28:36;;;;;;;;;;;;;;;8.38;58.19;100995.00;5079015;28;19913;-86
2023/03/13 00:31:30;;;;;;;;;;;;;;;8.55;58.33;100999.91;5075584;28;20403;-86
2023/03/13 00:34:22;;;;;;;;;;;;;;;8.41;58.24;100988.22;5072588;28;19913;-86
2023/03/13 00:37:14;;;;;;;;;;;;;;;8.36;58.31;100991.00;5071747;28;19912;-85
2023/03/13 00:40:06;;;;;;;;;;;;;;;8.42;58.35;100985.22;5073955;28;19924;-86
2023/03/13 00:42:58;;;;;;;;;;;;;;;8.38;58.22;100988.81;5067837;28;19912;-86
2023/03/13 00:45:48;;;;;;;;;;;;;;;8.54;57.32;100990.97;5074426;28;19912;-86
2023/03/13 00:48:40;;;;;;;;;;;;;;;8.40;58.31;100989.31;5075953;28;19913;-86
2023/03/13 00:51:34;;;;;;;;;;;;;;;8.46;57.77;100991.66;5072133;28;20376;-86
2023/03/13 00:54:26;;;;;;;;;;;;;;;8.53;57.87;100977.72;5073663;28;19913;-86
2023/03/13 00:57:19;;;;;;;;;;;;;;;8.61;57.96;100965.41;5076354;28;19912;-86
2023/03/13 01:00:11;;;;;;;;;;;;;;;8.88;56.86;100962.78;5072029;28;19913;-86
2023/03/13 01:03:05;;;;;;;;;;;;;;;8.81;57.30;100957.75;5068135;28;19921;-86
2023/03/13 01:06:02;;;;;;;;;;;;;;;8.93;56.82;100958.09;5071001;28;20291;-86
2023/03/13 01:08:54;;;;;;;;;;;;;;;9.04;56.22;100957.91;5076314;28;19912;-86
2023/03/13 01:11:44;;;;;;;;;;;;;;;9.07;56.26;100965.44;5069755;28;19916;-85
2023/03/13 01:14:34;;;;;;;;;;;;;;;8.91;56.64;100971.13;5069595;28;20604;-86
2023/03/13 01:17:23;;;;;;;;;;;;;;;8.89;56.27;100970.59;5070824;28;19912;-85
2023/03/13 01:20:15;;;;;;;;;;;;;;;8.90;56.66;100969.50;5071138;28;19912;-85
2023/03/13 01:23:07;;;;;;;;;;;;;;;8.74;56.93;100967.34;5087241;22;19925;-80
2023/03/13 01:25:58;;;;;;;;;;;;;;;8.80;57.11;100953.41;5058342;28;19920;-82
2023/03/13 01:28:50;;;;;;;;;;;;;;;8.80;57.06;100958.84;5074324;28;19916;-80
2023/03/13 01:31:42;;;;;;;;;;;;;;;8.82;57.29;100963.97;5047335;28;19917;-80
2023/03/13 01:34:31;;;;;;;;;;;;;;;8.67;57.49;100969.66;5051152;28;19968;-80
2023/03/13 01:37:23;;;;;;;;;;;;;;;8.69;57.84;100967.44;5061218;28;19913;-80
2023/03/13 01:40:16;;;;;;;;;;;;;;;8.67;57.99;100959.63;5056589;28;19917;-79
2023/03/13 01:43:14;;;;;;;;;;;;;;;8.72;58.06;100961.44;5053060;28;19921;-79
2023/03/13 01:46:07;;;;;;;;;;;;;;;8.84;57.85;100953.63;5054788;28;19913;-79
2023/03/13 01:49:11;;;;;;;;;;;;;;;8.79;58.23;100940.94;5046007;28;19916;-79
2023/03/13 01:52:22;;;;;;;;;;;;;;;8.95;58.13;100955.06;5044248;28;20372;-80
2023/03/13 01:55:25;;;;;;;;;;;;;;;8.95;57.60;100960.47;5047720;28;20299;-81
2023/03/13 01:58:18;;;;;;;;;;;;;;;8.68;58.90;100953.09;5052223;28;19913;-80
2023/03/13 02:01:10;;;;;;;;;;;;;;;8.86;58.26;100951.41;5053958;28;19912;-79
2023/03/13 02:04:02;;;;;;;;;;;;;;;8.44;59.27;100960.50;5057541;28;19912;-80
2023/03/13 02:06:55;;;;;;;;;;;;;;;8.47;59.72;100966.16;5057838;28;20323;-80
2023/03/13 02:09:49;;;;;;;;;;;;;;;8.76;58.81;100960.53;5078645;28;19921;-79
2023/03/13 02:12:41;;;;;;;;;;;;;;;8.87;58.77;100958.47;5042099;28;19916;-79
2023/03/13 02:15:32;;;;;;;;;;;;;;;8.89;58.60;100961.66;5066915;28;19913;-78
2023/03/13 02:18:24;;;;;;;;;;;;;;;8.78;59.42;100965.66;5054341;28;19912;-79
2023/03/13 02:21:32;;;;;;;;;;;;;;;8.56;59.86;100975.22;5056650;28;19912;-79
2023/03/13 02:24:33;;;;;;;;;;;;;;;8.53;60.00;100964.97;5056415;28;19913;-79
2023/03/13 02:27:25;;;;;;;;;;;;;;;8.27;61.06;100971.88;5051890;28;19913;-79
2023/03/13 02:30:18;;;;;;;;;;;;;;;8.58;60.57;100961.41;5056612;28;19916;-81
2023/03/13 02:33:10;;;;;;;;;;;;;;;8.71;59.93;100938.13;5056818;28;19913;-79
2023/03/13 02:36:01;;;;;;;;;;;;;;;8.80;59.75;100920.06;5072799;28;20391;-79
2023/03/13 02:38:54;;;;;;;;;;;;;;;8.93;59.57;100930.16;5068039;28;19920;-78
2023/03/13 02:41:48;;;;;;;;;;;;;;;9.08;58.92;100918.22;5048986;28;19913;-79
2023/03/13 02:44:43;;;;;;;;;;;;;;;9.05;58.69;100924.22;5055252;28;20295;-79
2023/03/13 02:47:35;;;;;;;;;;;;;;;8.71;59.69;100922.66;5059949;28;19912;-80
2023/03/13 02:50:27;;;;;;;;;;;;;;;8.75;60.08;100928.28;5048229;28;19921;-80
2023/03/13 02:53:19;;;;;;;;;;;;;;;8.95;59.91;100936.88;5044780;28;19913;-80
2023/03/13 02:56:13;;;;;;;;;;;;;;;8.97;58.99;100947.44;5041438;28;19921;-79
2023/03/13 02:59:05;;;;;;;;;;;;;;;8.87;59.65;100953.03;5061161;28;19913;-79
2023/03/13 03:01:58;;;;;;;;;;;;;;;8.92;59.21;100958.38;5047198;28;19913;-80
2023/03/13 03:04:50;;;;;;;;;;;;;;;8.94;59.27;100967.81;5060396;28;19913;-79
2023/03/13 03:07:42;;;;;;;;;;;;;;;9.08;59.33;100970.56;5048604;28;19920;-79
2023/03/13 03:10:36;;;;;;;;;;;;;;;9.07;60.03;100966.25;5043166;28;19916;-78
2023/03/13 03:13:28;;;;;;;;;;;;;;;9.18;59.99;100964.16;5051712;28;21347;-79
2023/03/13 03:16:20;;;;;;;;;;;;;;;9.29;59.24;100960.97;5049327;28;19912;-80
2023/03/13 03:19:12;;;;;;;;;;;;;;;9.30;59.66;100965.25;5047553;28;19912;-77
2023/03/13 03:22:04;;;;;;;;;;;;;;;9.43;58.98;100964.47;5051224;28;19912;-82
2023/03/13 03:24:56;;;;;;;;;;;;;;;9.44;59.12;100973.44;5039790;28;19917;-77
2023/03/13 03:27:48;;;;;;;;;;;;;;;9.40;58.95;100973.19;5039546;28;19920;-81
2023/03/13 03:30:40;;;;;;;;;;;;;;;9.42;58.97;100981.84;5046867;28;19917;-81
2023/03/13 03:33:33;;;;;;;;;;;;;;;9.42;59.05;100978.34;5033230;28;19913;-81
2023/03/13 03:36:26;;;;;;;;;;;;;;;9.38;58.76;100975.44;5047892;28;19917;-82
2023/03/13 03:39:16;;;;;;;;;;;;;;;9.34;59.08;100985.28;5043682;28;20383;-82
2023/03/13 03:42:08;;;;;;;;;;;;;;;9.38;58.89;100991.72;5037582;28;19916;-81
2023/03/13 03:44:58;;;;;;;;;;;;;;;9.30;58.00;100995.09;5042597;28;19917;-82
2023/03/13 03:47:50;;;;;;;;;;;;;;;9.21;59.00;100986.06;5046694;28;19912;-82
2023/03/13 03:50:42;;;;;;;;;;;;;;;9.25;60.47;100987.06;5049724;28;19917;-82
2023/03/13 03:53:35;;;;;;;;;;;;;;;9.37;58.78;100975.72;5049608;28;19913;-81
2023/03/13 03:56:28;;;;;;;;;;;;;;;9.46;58.24;100984.75;5048619;28;19920;-80
2023/03/13 03:59:20;;;;;;;;;;;;;;;9.51;57.98;100978.44;5050949;28;19913;-82
2023/03/13 04:02:12;;;;;;;;;;;;;;;9.63;58.10;100984.19;5046753;28;19912;-81
2023/03/13 04:05:04;;;;;;;;;;;;;;;9.62;57.55;100986.09;5046718;28;20399;-81
2023/03/13 04:07:57;;;;;;;;;;;;;;;9.64;58.03;100991.22;5046080;28;19913;-82
2023/03/13 04:10:49;;;;;;;;;;;;;;;9.66;57.25;100986.28;5054928;28;19917;-81
2023/03/13 04:13:39;;;;;;;;;;;;;;;9.30;57.87;100994.28;5047967;28;19912;-81
2023/03/13 04:16:31;;;;;;;;;;;;;;;9.11;58.89;100988.94;5041380;28;19913;-78
2023/03/13 04:19:23;;;;;;;;;;;;;;;8.95;59.55;100982.97;5050614;28;19912;-81
2023/03/13 04:22:15;;;;;;;;;;;;;;;8.95;60.17;100995.72;5049368;28;19912;-82
2023/03/13 04:25:10;;;;;;;;;;;;;;;8.98;59.93;100989.72;5057597;28;19924;-82
2023/03/13 04:28:02;;;;;;;;;;;;;;;9.24;59.03;100984.66;5045355;28;19917;-80
2023/03/13 04:31:00;;;;;;;;;;;;;;;9.27;59.01;100982.16;5042787;28;19916;-81
2023/03/13 04:34:12;;;;;;;;;;;;;;;9.22;59.58;100978.72;5044211;28;19913;-79
2023/03/13 04:37:31;;;;;;;;;;;;;;;9.13;60.26;100977.81;5041838;28;19921;-82
2023/03/13 04:40:32;;;;;;;;;;;;;;;9.06;60.54;100975.47;5063304;28;19913;-78
2023/03/13 04:43:40;;;;;;;;;;;;;;;8.88;61.45;100981.78;5037036;28;19912;-79
2023/03/13 04:46:48;;;;;;;;;;;;;;;8.79;61.78;100980.81;5043593;28;19917;-79
2023/03/13 04:50:00;;;;;;;;;;;;;;;8.83;61.77;100977.25;5046848;28;19924;-79
2023/03/13 04:53:19;;;;;;;;;;;;;;;8.79;62.07;100968.06;5042084;28;19913;-79
2023/03/13 04:56:29;;;;;;;;;;;;;;;8.92;62.11;100971.94;5045478;28;19913;-79
2023/03/13 04:59:43;;;;;;;;;;;;;;;8.68;62.78;100972.06;5050719;28;20384;-78
2023/03/13 05:02:52;;;;;;;;;;;;;;;8.69;63.09;100975.56;5042638;28;19928;-79
2023/03/13 05:05:50;;;;;;;;;;;;;;;8.47;64.38;100982.44;5043930;28;19920;-78
2023/03/13 05:08:47;;;;;;;;;;;;;;;8.65;64.38;100982.69;5047889;28;19913;-79
2023/03/13 05:11:49;;;;;;;;;;;;;;;8.63;63.95;100985.72;5043699;28;19921;-80
2023/03/13 05:15:05;;;;;;;;;;;;;;;8.52;63.88;100984.25;5053273;28;19912;-79
2023/03/13 05:18:04;;;;;;;;;;;;;;;8.62;63.53;100983.28;5045551;28;19921;-79
2023/03/13 05:21:03;;;;;;;;;;;;;;;8.59;63.50;100980.06;5050618;28;19921;-81
2023/03/13 05:24:16;;;;;;;;;;;;;;;8.76;62.70;100984.13;5046160;28;19921;-80
2023/03/13 05:27:22;;;;;;;;;;;;;;;8.66;62.92;100984.28;5046320;28;19912;-80
2023/03/13 05:30:26;;;;;;;;;;;;;;;8.68;63.74;100982.09;5039000;28;19917;-80
2023/03/13 05:33:45;;;;;;;;;;;;;;;8.68;63.79;100988.34;5040269;28;19912;-79
2023/03/13 05:36:50;;;;;;;;;;;;;;;8.70;63.61;100996.16;5068166;28;20291;-82
2023/03/13 05:40:15;;;;;;;;;;;;;;;8.79;63.36;101000.59;5040301;28;19917;-82
2023/03/13 05:43:24;;;;;;;;;;;;;;;8.80;63.28;101002.22;5045057;28;19913;-83
2023/03/13 05:46:32;;;;;;;;;;;;;;;8.76;63.56;100989.56;5044559;28;20303;-81
2023/03/13 05:49:55;;;;;;;;;;;;;;;8.73;62.69;100987.44;5054884;28;19913;-79
2023/03/13 05:53:02;;;;;;;;;;;;;;;8.95;62.33;100999.25;5055004;28;19912;-81
2023/03/13 05:56:15;;;;;;;;;;;;;;;9.10;61.98;100994.66;5057197;28;19921;-80
2023/03/13 05:59:43;;;;;;;;;;;;;;;9.27;61.54;100984.06;5020231;28;20442;-81
2023/03/13 06:02:55;;;;;;;;;;;;;;;9.41;61.09;100987.56;5024573;28;20300;-79
2023/03/13 06:05:58;;;;;;;;;;;;;;;9.48;60.96;100990.72;5059869;28;19912;-80
2023/03/13 06:09:09;;;;;;;;;;;;;;;9.48;60.87;100998.84;5051629;28;19920;-80
2023/03/13 06:12:02;;;;;;;;;;;;;;;9.39;60.66;100995.22;5046700;28;19917;-79
2023/03/13 06:14:54;;;;;;;;;;;;;;;9.57;60.78;101004.38;5049218;28;19913;-79
2023/03/13 06:17:48;;;;;;;;;;;;;;;9.49;60.95;101000.47;5047130;28;19920;-81
2023/03/13 06:20:40;;;;;;;;;;;;;;;9.57;61.47;100998.94;5048227;28;19912;-82
2023/03/13 06:23:32;;;;;;;;;;;;;;;9.76;59.71;100997.75;5049467;28;19912;-84
2023/03/13 06:26:24;;;;;;;;;;;;;;;10.02;58.78;100986.34;5058747;28;20287;-84
2023/03/13 06:29:18;;;;;;;;;;;;;;;10.13;58.75;100991.25;5058461;28;19912;-84
2023/03/13 06:32:05;;;;;;;;;;;;;;;10.22;58.83;101011.19;5046259;28;19916;-84
2023/03/13 06:34:57;;;;;;;;;;;;;;;10.13;58.75;101013.00;5052955;28;19921;-83
2023/03/13 06:37:54;;;;;;;;;;;;;;;10.04;58.60;101020.25;5051832;28;19913;-84
2023/03/13 06:40:46;;;;;;;;;;;;;;;10.18;59.15;101025.69;5059660;28;19913;-82
2023/03/13 06:43:38;;;;;;;;;;;;;;;10.33;58.53;101035.44;5056171;28;19917;-82
2023/03/13 06:46:31;;;;;;;;;;;;;;;10.44;58.51;101044.97;5052065;28;20268;-83
2023/03/13 06:49:23;;;;;;;;;;;;;;;10.51;57.75;101040.75;5059405;28;19912;-83
2023/03/13 06:52:15;;;;;;;;;;;;;;;10.50;58.38;101043.75;5039785;28;19917;-83
2023/03/13 06:55:07;;;;;;;;;;;;;;;10.63;58.10;101043.72;5060160;28;19912;-83
2023/03/13 06:57:59;;;;;;;;;;;;;;;10.80;57.42;101021.28;5064850;28;19912;-82
2023/03/13 07:00:51;;;;;;;;;;;;;;;10.66;58.47;101017.81;5059950;28;19912;-83
2023/03/13 07:03:43;;;;;;;;;;;;;;;10.85;57.66;101028.53;5068437;28;19912;-83
2023/03/13 07:06:35;;;;;;;;;;;;;;;11.15;56.59;101028.56;5061030;28;20379;-82
2023/03/13 07:09:25;;;;;;;;;;;;;;;11.32;56.27;101029.78;5060588;28;20307;-82
2023/03/13 07:12:17;;;;;;;;;;;;;;;11.32;56.68;101027.88;5072473;28;19917;-82
2023/03/13 07:15:09;;;;;;;;;;;;;;;11.23;58.14;101035.16;5061248;28;19912;-84
2023/03/13 07:18:01;;;;;;;;;;;;;;;11.12;59.30;101033.84;5059814;28;20279;-83
2023/03/13 07:20:58;;;;;;;;;;;;;;;11.14;59.02;101032.41;5050443;28;20295;-80
2023/03/13 07:23:50;;;;;;;;;;;;;;;11.40;57.85;101035.28;5053818;28;19912;-81
2023/03/13 07:26:42;;;;;;;;;;;;;;;11.57;57.03;101045.44;5073095;22;20391;-83
2023/03/13 07:29:34;;;;;;;;;;;;;;;11.67;57.51;101050.63;5059807;28;19916;-82
2023/03/13 07:32:25;;;;;;;;;;;;;;;11.64;57.19;101051.22;5056917;28;19917;-83
2023/03/13 07:35:17;;;;;;;;;;;;;;;11.86;56.26;101042.22;5054890;28;19912;-83
2023/03/13 07:38:09;;;;;;;;;;;;;;;12.04;55.87;101034.91;5042579;28;19917;-83
2023/03/13 07:41:01;;;;;;;;;;;;;;;12.19;55.69;101037.97;5048762;28;19932;-82
2023/03/13 07:43:50;;;;;;;;;;;;;;;12.41;55.35;101029.66;5037257;28;20379;-83
2023/03/13 07:46:42;;;;;;;;;;;;;;;12.66;54.89;101027.25;5047268;28;19912;-84
2023/03/13 07:49:34;;;;;;;;;;;;;;;12.99;53.35;101033.84;5051149;28;19925;-83
2023/03/13 07:52:26;;;;;;;;;;;;;;;12.94;53.49;101028.56;5047787;28;19925;-83
2023/03/13 07:55:16;;;;;;;;;;;;;;;13.01;52.90;101028.03;5044234;28;19913;-82
2023/03/13 07:58:08;;;;;;;;;;;;;;;13.26;52.37;101029.94;5037076;28;19913;-84
2023/03/13 08:00:55;;;;;;;;;;;;;;;13.52;52.26;101019.75;5044490;28;20383;-83
2023/03/13 08:03:47;;;;;;;;;;;;;;;13.33;52.22;101022.06;5042357;28;19924;-83
2023/03/13 08:06:39;;;;;;;;;;;;;;;13.41;51.69;101029.41;5044972;28;19916;-82
2023/03/13 08:09:33;;;;;;;;;;;;;;;13.66;50.92;101022.28;5046308;28;19913;-82
2023/03/13 08:12:25;;;;;;;;;;;;;;;13.80;50.34;101016.56;5025000;28;19917;-81
2023/03/13 08:15:17;;;;;;;;;;;;;;;13.89;48.34;101018.13;5042101;28;19913;-81
2023/03/13 08:18:09;;;;;;;;;;;;;;;14.47;47.54;101014.59;5039443;28;20012;-81
2023/03/13 08:21:01;;;;;;;;;;;;;;;14.76;46.53;101012.88;5034231;28;19914;-81
2023/03/13 08:23:54;;;;;;;;;;;;;;;15.06;46.11;101019.03;5040523;28;19917;-80
2023/03/13 08:26:46;;;;;;;;;;;;;;;15.22;45.34;101018.06;5042100;28;19913;-80
2023/03/13 08:29:38;;;;;;;;;;;;;;;15.32;45.47;101033.25;5042046;28;19913;-81
2023/03/13 08:32:30;;;;;;;;;;;;;;;15.45;45.59;101045.84;5037175;28;19921;-80
2023/03/13 08:35:22;;;;;;;;;;;;;;;15.26;45.21;101040.91;5039980;28;19913;-81
2023/03/13 08:38:14;;;;;;;;;;;;;;;15.43;45.94;101045.41;5032460;28;19913;-80
2023/03/13 08:41:03;;;;;;;;;;;;;;;15.66;44.66;101043.84;5039130;28;19916;-80
2023/03/13 08:43:55;;;;;;;;;;;;;;;15.56;43.86;101051.72;5032269;28;20389;-80
2023/03/13 08:46:47;;;;;;;;;;;;;;;15.37;43.80;101039.34;5039283;28;20395;-80
2023/03/13 08:49:39;;;;;;;;;;;;;;;15.56;43.35;101057.19;5025948;28;19917;-79
2023/03/13 08:52:31;;;;;;;;;;;;;;;15.31;39.85;101045.34;5023089;28;19917;-80
2023/03/13 08:55:23;;;;;;;;;;;;;;;15.65;39.98;101060.63;5020928;28;19913;-79
2023/03/13 08:58:16;;;;;;;;;;;;;;;15.44;39.85;101063.41;5038795;28;19913;-79
2023/03/13 09:01:09;;;;;;;;;;;;;;;15.76;39.25;101061.81;5035866;28;19913;-80
2023/03/13 09:04:01;;;;;;;;;;;;;;;15.68;40.39;101063.53;5019936;28;19914;-79
2023/03/13 09:06:53;;;;;;;;;;;;;;;15.88;38.10;101059.06;5023644;28;19913;-79
2023/03/13 09:09:45;;;;;;;;;;;;;;;16.33;40.13;101066.38;5029864;28;19917;-80
2023/03/13 09:12:37;;;;;;;;;;;;;;;16.64;38.22;101058.34;5036518;28;19925;-79
2023/03/13 09:15:29;;;;;;;;;;;;;;;17.15;39.60;101064.91;5053683;28;19912;-79
2023/03/13 09:18:21;;;;;;;;;;;;;;;17.26;37.53;101062.44;5037176;28;19913;-80
2023/03/13 09:21:13;;;;;;;;;;;;;;;17.72;38.30;101069.97;5029656;28;19913;-79
2023/03/13 09:24:01;;;;;;;;;;;;;;;17.57;35.75;101059.75;5030082;28;19913;-79
2023/03/13 09:26:53;;;;;;;;;;;;;;;17.54;37.74;101057.69;5019840;28;19914;-79
2023/03/13 09:29:45;;;;;;;;;;;;;;;17.57;35.67;101053.44;5032236;28;19920;-79
2023/03/13 09:32:37;;;;;;;;;;;;;;;16.81;36.65;101052.53;5029609;28;19922;-79
2023/03/13 09:35:30;;;;;;;;;;;;;;;17.72;34.79;101045.22;5032727;28;19913;-79
2023/03/13 09:38:20;;;;;;;;;;;;;;;16.65;35.65;101036.03;5036058;28;19913;-79
2023/03/13 09:41:21;;;;;;;;;;;;;;;17.09;34.46;101034.13;5030189;28;19913;-79
2023/03/13 09:44:15;;;;;;;;;;;;;;;16.63;35.00;101026.53;5032527;28;19913;-77
2023/03/13 09:47:14;;;;;;;;;;;;;;;16.95;34.30;101016.44;5036712;28;19913;-76
2023/03/13 09:50:04;;;;;;;;;;;;;;;16.85;35.96;101028.75;5031558;28;20308;-77
2023/03/13 09:52:56;;;;;;;;;;;;;;;17.13;34.50;101033.41;5031256;28;19917;-77
2023/03/13 09:55:48;;;;;;;;;;;;;;;16.61;34.62;101031.53;5031318;28;19912;-77
2023/03/13 09:58:43;;;;;;;;;;;;;;;16.89;34.40;101029.63;5027725;28;19916;-76
2023/03/13 10:01:36;;;;;;;;;;;;;;;17.24;34.41;101031.75;5034517;28;19913;-77
2023/03/13 10:04:32;;;;;;;;;;;;;;;17.57;32.71;101042.44;5033825;28;19913;-77
2023/03/13 10:07:25;;;;;;;;;;;;;;;17.24;34.07;101037.25;5031640;28;19913;-77
2023/03/13 10:10:23;;;;;;;;;;;;;;;17.46;33.70;101034.72;5034622;28;19913;-77
2023/03/13 10:13:35;;;;;;;;;;;;;;;17.75;33.16;101033.50;5038203;28;20281;-77
2023/03/13 10:16:43;;;;;;;;;;;;;;;16.94;34.18;101042.31;4996801;28;19914;-77
2023/03/13 10:19:36;;;;;;;;;;;;;;;17.71;32.52;101035.38;5021676;28;19913;-78
2023/03/13 10:22:28;;;;;;;;;;;;;;;17.16;32.85;101035.47;5031938;28;19913;-77
2023/03/13 10:25:37;;;;;;;;;;;;;;;18.31;31.42;101036.78;5038516;28;20395;-78
2023/03/13 10:28:29;;;;;;;;;;;;;;;17.32;32.67;101030.81;5024709;28;19913;-77
2023/03/13 10:31:31;;;;;;;;;;;;;;;17.30;32.19;101033.09;5019369;28;19921;-78
2023/03/13 10:34:23;;;;;;;;;;;;;;;17.23;32.27;101024.66;5018756;28;19914;-78
2023/03/13 10:37:13;;;;;;;;;;;;;;;17.05;32.46;101018.69;5020273;28;19914;-78
2023/03/13 10:40:21;;;;;;;;;;;;;;;16.96;33.20;101016.09;5021577;28;19913;-78
2023/03/13 10:43:22;;;;;;;;;;;;;;;16.86;33.78;101011.13;5035507;28;19913;-78
2023/03/13 10:46:25;;;;;;;;;;;;;;;17.03;33.81;101005.28;5032515;28;19913;-78
2023/03/13 10:49:20;;;;;;;;;;;;;;;17.01;33.67;101004.06;5022701;28;19912;-78
2023/03/13 10:52:27;;;;;;;;;;;;;;;16.31;34.86;101000.03;5033376;28;19917;-78
2023/03/13 10:55:21;;;;;;;;;;;;;;;17.05;34.33;101011.25;5037074;28;19913;-78
2023/03/13 10:58:17;;;;;;;;;;;;;;;17.84;33.11;101009.34;5033205;28;19913;-78
2023/03/13 11:01:27;;;;;;;;;;;;;;;17.81;32.61;101004.56;5037034;28;19913;-78
2023/03/13 11:04:36;;;;;;;;;;;;;;;18.28;32.06;101012.75;5029671;28;19913;-78
2023/03/13 11:07:39;;;;;;;;;;;;;;;19.92;29.67;101000.88;5027536;28;19913;-77
2023/03/13 11:10:31;;;;;;;;;;;;;;;20.03;29.80;100990.78;5014729;28;19917;-77
2023/03/13 11:13:39;;;;;;;;;;;;;;;20.65;29.02;100993.22;5036113;28;20371;-78
2023/03/13 11:16:38;;;;;;;;;;;;;;;20.66;28.64;100983.75;5039745;28;19917;-77
2023/03/13 11:19:34;;;;;;;;;;;;;;;20.80;28.69;100970.09;5036926;28;19913;-77
2023/03/13 11:22:30;;;;;;;;;;;;;;;23.43;24.83;100973.25;5030459;28;20323;-77
2023/03/13 11:25:19;;;;;;;;;;;;;;;26.90;21.13;100978.59;5029717;28;19913;-78
2023/03/13 11:28:25;;;;;;;;;;;;;;;28.72;19.02;100987.00;5026818;28;19916;-76
2023/03/13 11:31:13;;;;;;;;;;;;;;;31.49;15.70;100983.06;5038600;28;19917;-81
2023/03/13 11:34:03;;;;;;;;;;;;;;;32.62;15.08;100973.41;5043931;28;20288;-83
2023/03/13 11:37:14;;;;;;;;;;;;;;;32.79;14.02;100979.63;5045674;28;19913;-84
2023/03/13 11:40:18;;;;;;;;;;;;;;;32.61;14.01;100979.50;5040634;28;19913;-81
2023/03/13 11:43:28;;;;;;;;;;;;;;;32.94;13.54;100982.66;5042616;28;19913;-81
2023/03/13 11:46:20;;;;;;;;;;;;;;;32.99;13.92;100979.25;5035339;28;19913;-80
2023/03/13 11:49:33;;;;;;;;;;;;;;;34.85;12.41;100979.22;5041705;28;19913;-83
2023/03/13 11:52:27;;;;;;;;;;;;;;;34.99;11.89;100962.41;5039104;28;20396;-83
2023/03/13 11:55:26;;;;;;;;;;;;;;;35.27;11.97;100960.22;5044200;28;19913;-83
2023/03/13 11:58:43;;;;;;;;;;;;;;;34.92;12.40;100956.28;5043171;28;19913;-84
2023/03/13 12:01:42;;;;;;;;;;;;;;;35.89;11.49;100951.00;5032623;28;19913;-84
2023/03/13 12:04:35;;;;;;;;;;;;;;;36.05;11.67;100944.91;5053788;28;19913;-84
2023/03/13 12:07:41;;;;;;;;;;;;;;;35.99;11.63;100941.16;5056953;28;20395;-82
2023/03/13 12:10:56;;;;;;;;;;;;;;;35.56;11.30;100939.75;5040044;28;19913;-83
2023/03/13 12:13:48;;;;;;;;;;;;;;;34.14;12.72;100926.78;5034148;28;19917;-83
2023/03/13 12:16:44;;;;;;;;;;;;;;;35.86;11.40;100918.03;5041442;28;19912;-80
2023/03/13 12:19:38;;;;;;;;;;;;;;;32.61;13.57;100917.56;5036122;28;19917;-82
2023/03/13 12:22:39;;;;;;;;;;;;;;;36.19;11.69;100918.66;5035576;28;19913;-81
2023/03/13 12:25:31;;;;;;;;;;;;;;;34.20;12.68;100913.63;5037247;28;20019;-82
2023/03/13 12:28:30;;;;;;;;;;;;;;;35.35;11.84;100916.19;5037816;28;20368;-82
2023/03/13 12:31:23;;;;;;;;;;;;;;;29.88;15.91;100903.28;5039157;28;20184;-81
2023/03/13 12:34:20;;;;;;;;;;;;;;;31.02;15.34;100879.03;5041901;28;19913;-81
2023/03/13 12:37:12;;;;;;;;;;;;;;;29.43;16.65;100878.09;5043228;28;19913;-81
2023/03/13 12:40:07;;;;;;;;;;;;;;;29.13;17.51;100863.22;5039647;28;20391;-81
2023/03/13 12:43:00;;;;;;;;;;;;;;;29.11;17.40;100868.47;5030292;28;19914;-82
2023/03/13 12:45:56;;;;;;;;;;;;;;;29.62;16.94;100855.53;5047141;28;19913;-81
2023/03/13 12:49:00;;;;;;;;;;;;;;;29.30;17.40;100841.56;5041929;28;19913;-81
2023/03/13 12:51:50;;;;;;;;;;;;;;;27.98;18.35;100840.25;5034074;28;19918;-81
2023/03/13 12:54:49;;;;;;;;;;;;;;;26.76;19.84;100834.47;5024716;28;19913;-81
2023/03/13 12:57:57;;;;;;;;;;;;;;;27.69;19.22;100837.22;5035393;28;19913;-81
2023/03/13 13:00:51;;;;;;;;;;;;;;;28.95;17.90;100831.28;5040054;28;19921;-80
2023/03/13 13:03:59;;;;;;;;;;;;;;;29.02;17.60;100823.47;5041220;28;19913;-81
2023/03/13 13:06:55;;;;;;;;;;;;;;;27.20;20.11;100808.22;5041704;28;19917;-81
2023/03/13 13:10:03;;;;;;;;;;;;;;;26.12;20.76;100812.25;5046917;28;19912;-82
2023/03/13 13:13:10;;;;;;;;;;;;;;;26.44;20.41;100795.09;5035522;28;20296;-81
2023/03/13 13:16:07;;;;;;;;;;;;;;;26.80;20.19;100796.13;5035183;28;19921;-85
2023/03/13 13:19:11;;;;;;;;;;;;;;;27.51;19.59;100794.88;5043536;28;19913;-86
2023/03/13 13:22:17;;;;;;;;;;;;;;;27.53;20.16;100789.66;5042559;28;19917;-81
2023/03/13 13:25:23;;;;;;;;;;;;;;;26.50;20.47;100790.63;5041231;28;19913;-80
2023/03/13 13:28:25;;;;;;;;;;;;;;;27.20;19.72;100786.66;5061141;22;19921;-90
2023/03/13 13:31:33;;;;;;;;;;;;;;;26.91;19.87;100782.00;5030773;28;19917;-91
2023/03/13 13:34:35;;;;;;;;;;;;;;;26.21;21.08;100771.47;5029374;28;19917;-91
2023/03/13 13:37:28;;;;;;;;;;;;;;;26.22;20.96;100772.31;5021303;28;19913;-91
2023/03/13 13:40:21;;;;;;;;;;;;;;;27.71;19.73;100766.94;5027272;28;19913;-91
2023/03/13 13:43:23;;;;;;;;;;;;;;;27.12;20.15;100767.69;5042413;28;19913;-90
2023/03/13 13:50:24;;;;;;;;;;;;;;;25.38;21.98;100767.38;5030011;28;19913;-88
2023/03/13 13:53:43;;;;;;;;;;;;;;;24.01;23.41;100761.69;5036838;28;19913;-90
2023/03/13 13:56:36;;;;;;;;;;;;;;;26.54;20.91;100766.25;5041180;28;20373;-89
2023/03/13 13:59:29;;;;;;;;;;;;;;;26.85;20.27;100752.97;5041128;28;19912;-89
2023/03/13 14:02:27;;;;;;;;;;;;;;;26.68;20.63;100750.06;5041425;28;19913;-89
2023/03/13 14:05:21;;;;;;;;;;;;;;;27.05;20.49;100748.25;5041353;28;19913;-89
2023/03/13 14:08:15;;;;;;;;;;;;;;;26.26;20.67;100740.38;5036572;28;20376;-89
2023/03/13 14:11:10;;;;;;;;;;;;;;;24.70;23.06;100742.16;5040275;28;19913;-90
2023/03/13 14:17:59;;;;;;;;;;;;;;;23.13;24.58;100729.47;5024679;28;19917;-90
2023/03/13 14:20:59;;;;;;;;;;;;;;;21.84;26.47;100737.31;5040000;28;19913;-89
2023/03/13 14:24:13;;;;;;;;;;;;;;;21.87;26.44;100730.97;5018460;28;20384;-86
2023/03/13 14:27:15;;;;;;;;;;;;;;;22.51;26.20;100731.88;5018529;28;19914;-83
2023/03/13 14:30:08;;;;;;;;;;;;;;;22.37;25.81;100729.13;5025534;28;19913;-85
2023/03/13 14:33:00;;;;;;;;;;;;;;;20.58;28.29;100725.09;5037748;28;20296;-90
2023/03/13 14:35:50;;;;;;;;;;;;;;;20.70;28.65;100722.03;5042823;28;20292;-91
2023/03/13 14:38:52;;;;;;;;;;;;;;;20.98;28.03;100715.94;5033486;28;20393;-90
2023/03/13 14:41:41;;;;;;;;;;;;;;;20.93;28.28;100706.78;5032177;28;19913;-84
2023/03/13 14:44:33;;;;;;;;;;;;;;;19.29;30.62;100718.53;5027686;28;19916;-83
2023/03/13 14:47:23;;;;;;;;;;;;;;;18.80;31.46;100700.91;5039037;28;19913;-82
2023/03/13 14:50:13;;;;;;;;;;;;;;;19.23;31.34;100693.25;5034085;28;19913;-83
2023/03/13 14:53:04;;;;;;;;;;;;;;;19.90;29.97;100698.81;5035698;28;20371;-83
2023/03/13 14:56:10;;;;;;;;;;;;;;;20.34;29.82;100691.38;5025231;28;19921;-83
2023/03/13 14:59:19;;;;;;;;;;;;;;;20.14;30.10;100683.66;5039241;28;20391;-85
2023/03/13 15:02:17;;;;;;;;;;;;;;;19.46;30.95;100685.69;5037678;28;19913;-84
2023/03/13 15:05:09;;;;;;;;;;;;;;;19.61;30.62;100672.84;5028792;28;19914;-85
2023/03/13 15:08:01;;;;;;;;;;;;;;;19.32;31.00;100677.22;5021277;28;20303;-83
2023/03/13 15:10:50;;;;;;;;;;;;;;;19.44;31.12;100676.19;5013514;28;20313;-85
2023/03/13 15:13:42;;;;;;;;;;;;;;;18.92;32.09;100660.53;5039178;28;19913;-85
2023/03/13 15:16:34;;;;;;;;;;;;;;;18.59;32.26;100655.75;5037238;28;20577;-83